sensor_id;sensor_type;location;lat;lon;timestamp;pressure;altitude;pressure_sealevel;temperature;humidity
12759;BME280;20944;47.048;15.390;2024-03-25T00:01:56;96634.34;;;3.86;100.00
12759;BME280;20944;47.048;15.390;2024-03-25T00:04:22;96626.72;;;3.78;100.00
12759;BME280;20944;47.048;15.390;2024-03-25T00:06:50;96630.09;;;3.84;100.00
12759;BME280;20944;47.048;15.390;2024-03-25T00:09:17;96603.81;;;3.54;100.00
12759;BME280;20944;47.048;15.390;2024-03-25T00:11:44;96645.63;;;3.84;100.00
12759;BME280;20944;47.048;15.390;2024-03-25T00:14:12;96649.16;;;3.79;100.00
12759;BME280;20944;47.048;15.390;2024-03-25T00:16:39;96630.34;;;3.68;100.00
12759;BME280;20944;47.048;15.390;2024-03-25T00:19:05;96607.19;;;3.58;100.00
12759;BME280;20944;47.048;15.390;2024-03-25T00:21:33;96632.16;;;3.63;100.00
12759;BME280;20944;47.048;15.390;2024-03-25T00:23:59;96627.44;;;3.36;100.00
12759;BME280;20944;47.048;15.390;2024-03-25T00:26:26;96636.94;;;3.35;100.00
12759;BME280;20944;47.048;15.390;2024-03-25T00:28:52;96507.97;;;2.51;100.00
12759;BME280;20944;47.048;15.390;2024-03-25T00:31:21;96620.84;;;3.15;100.00
12759;BME280;20944;47.048;15.390;2024-03-25T00:33:48;96637.03;;;3.29;100.00
12759;BME280;20944;47.048;15.390;2024-03-25T00:36:15;96631.84;;;3.29;100.00
12759;BME280;20944;47.048;15.390;2024-03-25T00:38:41;96655.09;;;3.31;100.00
12759;BME280;20944;47.048;15.390;2024-03-25T00:41:09;96639.47;;;3.38;100.00
12759;BME280;20944;47.048;15.390;2024-03-25T00:43:36;96636.97;;;3.34;100.00
12759;BME280;20944;47.048;15.390;2024-03-25T00:46:03;96619.78;;;3.27;100.00
12759;BME280;20944;47.048;15.390;2024-03-25T00:48:31;96624.06;;;3.31;100.00
12759;BME280;20944;47.048;15.390;2024-03-25T00:50:58;96299.81;;;1.16;100.00
12759;BME280;20944;47.048;15.390;2024-03-25T00:53:25;96639.66;;;3.24;100.00
12759;BME280;20944;47.048;15.390;2024-03-25T00:55:52;96644.06;;;3.21;100.00
12759;BME280;20944;47.048;15.390;2024-03-25T00:58:18;96632.19;;;3.06;100.00
12759;BME280;20944;47.048;15.390;2024-03-25T01:00:46;96648.34;;;3.22;100.00
12759;BME280;20944;47.048;15.390;2024-03-25T01:03:12;96639.66;;;3.24;100.00
12759;BME280;20944;47.048;15.390;2024-03-25T01:05:41;96634.50;;;3.24;100.00
12759;BME280;20944;47.048;15.390;2024-03-25T01:08:07;96629.28;;;3.28;100.00
12759;BME280;20944;47.048;15.390;2024-03-25T01:10:36;96631.84;;;3.29;100.00
12759;BME280;20944;47.048;15.390;2024-03-25T01:13:03;96625.69;;;3.36;100.00
12759;BME280;20944;47.048;15.390;2024-03-25T01:15:30;96619.81;;;3.25;100.00
12759;BME280;20944;47.048;15.390;2024-03-25T01:17:57;96606.09;;;3.20;100.00
12759;BME280;20944;47.048;15.390;2024-03-25T01:20:24;96579.81;;;2.89;100.00
12759;BME280;20944;47.048;15.390;2024-03-25T01:22:52;96603.00;;;2.96;100.00
12759;BME280;20944;47.048;15.390;2024-03-25T01:25:20;96617.56;;;3.04;100.00
12759;BME280;20944;47.048;15.390;2024-03-25T01:27:46;96619.41;;;2.95;100.00
12759;BME280;20944;47.048;15.390;2024-03-25T01:30:14;96578.34;;;2.73;100.00
12759;BME280;20944;47.048;15.390;2024-03-25T01:32:40;96627.91;;;3.04;100.00
12759;BME280;20944;47.048;15.390;2024-03-25T01:35:08;96627.03;;;3.05;100.00
12759;BME280;20944;47.048;15.390;2024-03-25T01:37:35;96622.72;;;3.05;100.00
12759;BME280;20944;47.048;15.390;2024-03-25T01:40:05;96596.06;;;2.98;100.00
12759;BME280;20944;47.048;15.390;2024-03-25T01:42:32;96624.53;;;2.98;100.00
12759;BME280;20944;47.048;15.390;2024-03-25T01:45:00;96624.63;;;2.92;100.00
12759;BME280;20944;47.048;15.390;2024-03-25T01:47:26;96502.53;;;2.09;100.00
12759;BME280;20944;47.048;15.390;2024-03-25T01:49:53;96620.56;;;2.75;100.00
12759;BME280;20944;47.048;15.390;2024-03-25T01:52:22;96600.00;;;2.64;100.00
12759;BME280;20944;47.048;15.390;2024-03-25T01:54:51;96613.53;;;2.83;100.00
12759;BME280;20944;47.048;15.390;2024-03-25T01:57:20;96625.59;;;2.85;100.00
12759;BME280;20944;47.048;15.390;2024-03-25T01:59:47;96618.63;;;2.89;100.00
12759;BME280;20944;47.048;15.390;2024-03-25T02:02:14;96619.59;;;2.82;100.00
12759;BME280;20944;47.048;15.390;2024-03-25T02:04:42;96610.19;;;2.76;100.00
12759;BME280;20944;47.048;15.390;2024-03-25T02:07:10;96615.44;;;2.70;100.00
12759;BME280;20944;47.048;15.390;2024-03-25T02:09:38;96615.44;;;2.70;100.00
12759;BME280;20944;47.048;15.390;2024-03-25T02:12:06;96614.63;;;2.66;100.00
12759;BME280;20944;47.048;15.390;2024-03-25T02:14:36;96595.81;;;2.55;100.00
12759;BME280;20944;47.048;15.390;2024-03-25T02:17:03;96609.44;;;2.68;100.00
12759;BME280;20944;47.048;15.390;2024-03-25T02:19:31;96614.69;;;2.62;100.00
12759;BME280;20944;47.048;15.390;2024-03-25T02:21:58;96610.44;;;2.59;100.00
12759;BME280;20944;47.048;15.390;2024-03-25T02:24:26;96616.41;;;2.64;100.00
12759;BME280;20944;47.048;15.390;2024-03-25T02:26:55;96260.19;;;0.50;100.00
12759;BME280;20944;47.048;15.390;2024-03-25T02:29:22;96614.59;;;2.71;100.00
12759;BME280;20944;47.048;15.390;2024-03-25T02:31:48;96612.06;;;2.66;100.00
12759;BME280;20944;47.048;15.390;2024-03-25T02:34:18;96602.66;;;2.59;100.00
12759;BME280;20944;47.048;15.390;2024-03-25T02:36:45;96608.50;;;2.74;100.00
12759;BME280;20944;47.048;15.390;2024-03-25T02:39:13;96613.72;;;2.70;100.00
12759;BME280;20944;47.048;15.390;2024-03-25T02:41:40;96617.13;;;2.74;100.00
12759;BME280;20944;47.048;15.390;2024-03-25T02:44:09;96537.75;;;2.16;100.00
12759;BME280;20944;47.048;15.390;2024-03-25T02:46:35;96611.25;;;2.61;100.00
12759;BME280;20944;47.048;15.390;2024-03-25T02:49:03;96611.28;;;2.60;100.00
12759;BME280;20944;47.048;15.390;2024-03-25T02:51:29;96613.88;;;2.60;100.00
12759;BME280;20944;47.048;15.390;2024-03-25T02:53:56;96615.50;;;2.67;100.00
12759;BME280;20944;47.048;15.390;2024-03-25T02:56:22;96594.13;;;2.54;100.00
12759;BME280;20944;47.048;15.390;2024-03-25T02:58:50;96608.75;;;2.55;100.00
12759;BME280;20944;47.048;15.390;2024-03-25T03:01:18;96622.44;;;2.62;100.00
12759;BME280;20944;47.048;15.390;2024-03-25T03:03:45;96592.50;;;2.47;100.00
12759;BME280;20944;47.048;15.390;2024-03-25T03:06:11;96622.50;;;2.57;100.00
12759;BME280;20944;47.048;15.390;2024-03-25T03:08:39;96620.75;;;2.61;100.00
12759;BME280;20944;47.048;15.390;2024-03-25T03:11:05;96609.63;;;2.54;100.00
12759;BME280;20944;47.048;15.390;2024-03-25T03:13:33;96640.59;;;2.57;100.00
12759;BME280;20944;47.048;15.390;2024-03-25T03:15:59;96624.41;;;2.43;100.00
12759;BME280;20944;47.048;15.390;2024-03-25T03:18:28;96624.44;;;2.38;100.00
12759;BME280;20944;47.048;15.390;2024-03-25T03:20:54;96639.75;;;2.55;100.00
12759;BME280;20944;47.048;15.390;2024-03-25T03:23:22;96643.09;;;2.65;100.00
12759;BME280;20944;47.048;15.390;2024-03-25T03:25:48;96639.66;;;2.63;100.00
12759;BME280;20944;47.048;15.390;2024-03-25T03:28:17;96628.69;;;2.47;100.00
12759;BME280;20944;47.048;15.390;2024-03-25T03:30:44;96627.13;;;2.31;100.00
12759;BME280;20944;47.048;15.390;2024-03-25T03:33:11;96638.31;;;2.31;100.00
12759;BME280;20944;47.048;15.390;2024-03-25T03:35:39;96726.38;;;2.13;100.00
12759;BME280;20944;47.048;15.390;2024-03-25T03:38:06;96603.22;;;2.13;100.00
12759;BME280;20944;47.048;15.390;2024-03-25T03:40:32;96640.13;;;2.25;100.00
12759;BME280;20944;47.048;15.390;2024-03-25T03:42:59;96621.38;;;2.09;100.00
12759;BME280;20944;47.048;15.390;2024-03-25T03:45:26;96636.66;;;2.26;100.00
12759;BME280;20944;47.048;15.390;2024-03-25T03:47:53;96636.63;;;2.30;100.00
12759;BME280;20944;47.048;15.390;2024-03-25T03:50:19;96638.31;;;2.31;100.00
12759;BME280;20944;47.048;15.390;2024-03-25T03:52:48;96641.75;;;2.32;100.00
12759;BME280;20944;47.048;15.390;2024-03-25T03:55:15;96643.34;;;2.43;100.00
12759;BME280;20944;47.048;15.390;2024-03-25T03:57:42;96634.88;;;2.34;100.00
12759;BME280;20944;47.048;15.390;2024-03-25T04:00:09;96590.38;;;2.09;100.00
12759;BME280;20944;47.048;15.390;2024-03-25T04:02:38;96637.44;;;2.34;100.00
12759;BME280;20944;47.048;15.390;2024-03-25T04:05:05;96639.34;;;2.18;100.00
12759;BME280;20944;47.048;15.390;2024-03-25T04:07:32;96593.97;;;1.96;100.00
12759;BME280;20944;47.048;15.390;2024-03-25T04:10:00;96618.88;;;2.01;100.00
12759;BME280;20944;47.048;15.390;2024-03-25T04:12:29;96622.16;;;2.12;100.00
12759;BME280;20944;47.048;15.390;2024-03-25T04:14:55;96624.59;;;2.26;100.00
12759;BME280;20944;47.048;15.390;2024-03-25T04:17:23;96647.00;;;2.26;100.00
12759;BME280;20944;47.048;15.390;2024-03-25T04:19:50;96652.38;;;2.06;100.00
12759;BME280;20944;47.048;15.390;2024-03-25T04:22:17;96647.38;;;1.92;100.00
12759;BME280;20944;47.048;15.390;2024-03-25T04:24:44;96656.69;;;2.05;100.00
12759;BME280;20944;47.048;15.390;2024-03-25T04:27:12;96663.47;;;2.17;100.00
12759;BME280;20944;47.048;15.390;2024-03-25T04:29:39;96663.34;;;2.26;100.00
12759;BME280;20944;47.048;15.390;2024-03-25T04:32:06;96641.13;;;2.14;100.00
12759;BME280;20944;47.048;15.390;2024-03-25T04:34:34;96671.13;;;2.28;100.00
12759;BME280;20944;47.048;15.390;2024-03-25T04:37:01;96680.59;;;2.27;100.00
12759;BME280;20944;47.048;15.390;2024-03-25T04:39:28;96662.78;;;2.00;100.00
12759;BME280;20944;47.048;15.390;2024-03-25T04:41:54;96683.38;;;2.09;100.00
12759;BME280;20944;47.048;15.390;2024-03-25T04:44:22;96673.06;;;2.04;100.00
12759;BME280;20944;47.048;15.390;2024-03-25T04:46:48;96656.75;;;2.02;100.00
12759;BME280;20944;47.048;15.390;2024-03-25T04:49:14;96685.84;;;2.18;100.00
12759;BME280;20944;47.048;15.390;2024-03-25T04:51:41;96682.47;;;2.11;100.00
12759;BME280;20944;47.048;15.390;2024-03-25T04:54:07;96685.88;;;2.13;100.00
12759;BME280;20944;47.048;15.390;2024-03-25T04:56:34;96080.81;;;-1.29;100.00
12759;BME280;20944;47.048;15.390;2024-03-25T04:59:00;96683.97;;;2.32;100.00
12759;BME280;20944;47.048;15.390;2024-03-25T05:01:27;96677.03;;;2.37;100.00
12759;BME280;20944;47.048;15.390;2024-03-25T05:03:54;96684.66;;;2.48;100.00
12759;BME280;20944;47.048;15.390;2024-03-25T05:06:20;96648.66;;;2.31;100.00
12759;BME280;20944;47.048;15.390;2024-03-25T05:08:46;96700.16;;;2.50;100.00
12759;BME280;20944;47.048;15.390;2024-03-25T05:11:12;96693.25;;;2.52;100.00
12759;BME280;20944;47.048;15.390;2024-03-25T05:13:38;96682.91;;;2.52;100.00
12759;BME280;20944;47.048;15.390;2024-03-25T05:16:05;96685.31;;;2.64;100.00
12759;BME280;20944;47.048;15.390;2024-03-25T05:18:33;96687.59;;;2.91;100.00
12759;BME280;20944;47.048;15.390;2024-03-25T05:20:59;96694.53;;;2.88;100.00
12759;BME280;20944;47.048;15.390;2024-03-25T05:23:25;96691.03;;;2.92;100.00
12759;BME280;20944;47.048;15.390;2024-03-25T05:25:51;96697.00;;;2.97;100.00
12759;BME280;20944;47.048;15.390;2024-03-25T05:28:17;96703.81;;;3.04;100.00
12759;BME280;20944;47.048;15.390;2024-03-25T05:30:44;96697.72;;;3.07;100.00
12759;BME280;20944;47.048;15.390;2024-03-25T05:33:10;96690.13;;;2.96;100.00
12759;BME280;20944;47.048;15.390;2024-03-25T05:35:38;96693.53;;;2.98;100.00
12759;BME280;20944;47.048;15.390;2024-03-25T05:38:04;96702.06;;;3.05;100.00
12759;BME280;20944;47.048;15.390;2024-03-25T05:40:30;96706.41;;;3.01;100.00
12759;BME280;20944;47.048;15.390;2024-03-25T05:42:56;96690.44;;;2.72;100.00
12759;BME280;20944;47.048;15.390;2024-03-25T05:45:23;96726.56;;;2.76;100.00
12759;BME280;20944;47.048;15.390;2024-03-25T05:47:50;96700.00;;;2.62;100.00
12759;BME280;20944;47.048;15.390;2024-03-25T05:50:16;96730.75;;;2.89;100.00
12759;BME280;20944;47.048;15.390;2024-03-25T05:52:44;96728.94;;;2.96;100.00
12759;BME280;20944;47.048;15.390;2024-03-25T05:55:10;96732.28;;;3.03;100.00
12759;BME280;20944;47.048;15.390;2024-03-25T05:57:37;96743.41;;;3.09;100.00
12759;BME280;20944;47.048;15.390;2024-03-25T06:00:04;96743.25;;;3.21;100.00
12759;BME280;20944;47.048;15.390;2024-03-25T06:02:30;96747.50;;;3.27;100.00
12759;BME280;20944;47.048;15.390;2024-03-25T06:04:56;96747.38;;;3.36;100.00
12759;BME280;20944;47.048;15.390;2024-03-25T06:07:23;96749.91;;;3.41;100.00
12759;BME280;20944;47.048;15.390;2024-03-25T06:09:50;96756.56;;;3.59;100.00
12759;BME280;20944;47.048;15.390;2024-03-25T06:12:16;96727.34;;;3.49;100.00
12759;BME280;20944;47.048;15.390;2024-03-25T06:14:43;96761.53;;;3.72;100.00
12759;BME280;20944;47.048;15.390;2024-03-25T06:17:09;96753.06;;;3.58;100.00
12759;BME280;20944;47.048;15.390;2024-03-25T06:19:35;96769.47;;;3.60;100.00
12759;BME280;20944;47.048;15.390;2024-03-25T06:22:02;96776.47;;;3.54;100.00
12759;BME280;20944;47.048;15.390;2024-03-25T06:24:28;96777.47;;;3.43;100.00
12759;BME280;20944;47.048;15.390;2024-03-25T06:26:56;96772.44;;;3.31;100.00
12759;BME280;20944;47.048;15.390;2024-03-25T06:29:22;96739.19;;;3.01;100.00
12759;BME280;20944;47.048;15.390;2024-03-25T06:31:48;96774.41;;;3.14;100.00
12759;BME280;20944;47.048;15.390;2024-03-25T06:34:29;96782.09;;;3.20;100.00
12759;BME280;20944;47.048;15.390;2024-03-25T06:36:55;96776.06;;;3.21;100.00
12759;BME280;20944;47.048;15.390;2024-03-25T06:39:21;96774.34;;;3.18;100.00
12759;BME280;20944;47.048;15.390;2024-03-25T06:41:48;96766.59;;;3.17;100.00
12759;BME280;20944;47.048;15.390;2024-03-25T06:44:15;96708.28;;;2.91;100.00
12759;BME280;20944;47.048;15.390;2024-03-25T06:46:41;96774.97;;;3.37;100.00
12759;BME280;20944;47.048;15.390;2024-03-25T06:49:08;96769.81;;;3.36;100.00
12759;BME280;20944;47.048;15.390;2024-03-25T06:51:34;96776.81;;;3.26;100.00
12759;BME280;20944;47.048;15.390;2024-03-25T06:54:00;96759.75;;;3.13;100.00
12759;BME280;20944;47.048;15.390;2024-03-25T06:56:26;96763.81;;;3.32;100.00
12759;BME280;20944;47.048;15.390;2024-03-25T06:58:53;96774.91;;;3.42;100.00
12759;BME280;20944;47.048;15.390;2024-03-25T07:01:20;96755.88;;;3.44;100.00
12759;BME280;20944;47.048;15.390;2024-03-25T07:03:46;96776.38;;;3.60;100.00
12759;BME280;20944;47.048;15.390;2024-03-25T07:06:13;96771.94;;;3.68;100.00
12759;BME280;20944;47.048;15.390;2024-03-25T07:08:39;96762.56;;;3.61;100.00
12759;BME280;20944;47.048;15.390;2024-03-25T07:11:05;96763.13;;;3.79;100.00
12759;BME280;20944;47.048;15.390;2024-03-25T07:13:31;96764.66;;;3.93;100.00
12759;BME280;20944;47.048;15.390;2024-03-25T07:15:58;96771.41;;;4.03;100.00
12759;BME280;20944;47.048;15.390;2024-03-25T07:18:25;96772.91;;;4.18;100.00
12759;BME280;20944;47.048;15.390;2024-03-25T07:20:52;96786.09;;;4.55;100.00
12759;BME280;20944;47.048;15.390;2024-03-25T07:23:18;96777.38;;;4.59;100.00
12759;BME280;20944;47.048;15.390;2024-03-25T07:25:44;96770.50;;;4.56;100.00
12759;BME280;20944;47.048;15.390;2024-03-25T07:28:10;96779.13;;;4.57;100.00
12759;BME280;20944;47.048;15.390;2024-03-25T07:30:36;96773.38;;;4.41;100.00
12759;BME280;20944;47.048;15.390;2024-03-25T07:33:03;96786.69;;;4.69;100.00
12759;BME280;20944;47.048;15.390;2024-03-25T07:35:31;96791.50;;;4.91;100.00
12759;BME280;20944;47.048;15.390;2024-03-25T07:37:57;96768.88;;;4.96;100.00
12759;BME280;20944;47.048;15.390;2024-03-25T07:40:23;96784.09;;;5.16;100.00
12759;BME280;20944;47.048;15.390;2024-03-25T07:42:49;96771.53;;;4.93;100.00
12759;BME280;20944;47.048;15.390;2024-03-25T07:45:16;96790.38;;;5.02;100.00
12759;BME280;20944;47.048;15.390;2024-03-25T07:47:42;96792.13;;;5.03;100.00
12759;BME280;20944;47.048;15.390;2024-03-25T07:50:09;96800.69;;;5.07;100.00
12759;BME280;20944;47.048;15.390;2024-03-25T07:52:36;96808.41;;;5.10;100.00
12759;BME280;20944;47.048;15.390;2024-03-25T07:55:03;96796.25;;;5.12;100.00
12759;BME280;20944;47.048;15.390;2024-03-25T07:57:29;96803.22;;;5.10;100.00
12759;BME280;20944;47.048;15.390;2024-03-25T07:59:55;96790.38;;;5.02;100.00
12759;BME280;20944;47.048;15.390;2024-03-25T08:02:22;96808.38;;;5.11;100.00
12759;BME280;20944;47.048;15.390;2024-03-25T08:04:48;96809.63;;;5.35;100.00
12759;BME280;20944;47.048;15.390;2024-03-25T08:07:14;96779.88;;;5.50;100.00
12759;BME280;20944;47.048;15.390;2024-03-25T08:09:42;96799.94;;;5.82;100.00
12759;BME280;20944;47.048;15.390;2024-03-25T08:12:08;96808.84;;;6.12;100.00
12759;BME280;20944;47.048;15.390;2024-03-25T08:14:34;96808.94;;;6.43;100.00
12759;BME280;20944;47.048;15.390;2024-03-25T08:17:01;96793.13;;;6.51;99.67
12759;BME280;20944;47.048;15.390;2024-03-25T08:19:27;96791.53;;;6.80;99.85
12759;BME280;20944;47.048;15.390;2024-03-25T08:21:53;96794.47;;;7.00;98.14
12759;BME280;20944;47.048;15.390;2024-03-25T08:24:19;96799.44;;;7.39;97.48
12759;BME280;20944;47.048;15.390;2024-03-25T08:26:47;96779.63;;;7.63;94.72
12759;BME280;20944;47.048;15.390;2024-03-25T08:29:13;96795.16;;;7.95;91.75
12759;BME280;20944;47.048;15.390;2024-03-25T08:31:39;96776.31;;;8.14;91.21
12759;BME280;20944;47.048;15.390;2024-03-25T08:34:06;96777.25;;;8.39;87.99
12759;BME280;20944;47.048;15.390;2024-03-25T08:36:32;96776.75;;;8.54;85.82
12759;BME280;20944;47.048;15.390;2024-03-25T08:38:58;96764.78;;;8.74;86.12
12759;BME280;20944;47.048;15.390;2024-03-25T08:41:24;96777.88;;;8.97;84.93
12759;BME280;20944;47.048;15.390;2024-03-25T08:43:52;96762.81;;;9.05;82.68
12759;BME280;20944;47.048;15.390;2024-03-25T08:46:18;96772.97;;;9.36;81.37
12759;BME280;20944;47.048;15.390;2024-03-25T08:48:44;96737.97;;;9.40;81.28
12759;BME280;20944;47.048;15.390;2024-03-25T08:51:11;96765.44;;;9.74;80.57
12759;BME280;20944;47.048;15.390;2024-03-25T08:53:37;96753.78;;;9.83;77.19
12759;BME280;20944;47.048;15.390;2024-03-25T08:56:03;96750.03;;;9.90;71.68
12759;BME280;20944;47.048;15.390;2024-03-25T08:58:30;96722.41;;;9.83;74.26
12759;BME280;20944;47.048;15.390;2024-03-25T09:00:58;96755.31;;;10.10;69.71
12759;BME280;20944;47.048;15.390;2024-03-25T09:03:24;96751.13;;;10.28;68.11
12759;BME280;20944;47.048;15.390;2024-03-25T09:05:50;96755.63;;;10.46;64.69
12759;BME280;20944;47.048;15.390;2024-03-25T09:08:16;96737.22;;;10.48;61.99
12759;BME280;20944;47.048;15.390;2024-03-25T09:10:43;96758.84;;;10.73;62.86
12759;BME280;20944;47.048;15.390;2024-03-25T09:13:28;96758.31;;;10.86;65.29
12759;BME280;20944;47.048;15.390;2024-03-25T09:15:55;96750.69;;;11.00;63.36
12759;BME280;20944;47.048;15.390;2024-03-25T09:18:22;96753.84;;;11.08;61.82
12759;BME280;20944;47.048;15.390;2024-03-25T09:20:48;96752.31;;;11.23;63.41
12759;BME280;20944;47.048;15.390;2024-03-25T09:23:15;96745.53;;;11.38;64.09
12759;BME280;20944;47.048;15.390;2024-03-25T09:25:50;96702.41;;;11.24;60.70
12759;BME280;20944;47.048;15.390;2024-03-25T09:28:17;96749.59;;;11.64;56.62
12759;BME280;20944;47.048;15.390;2024-03-25T09:30:43;96752.91;;;11.67;54.31
12759;BME280;20944;47.048;15.390;2024-03-25T09:33:10;96690.69;;;11.52;56.33
12759;BME280;20944;47.048;15.390;2024-03-25T09:35:37;96726.97;;;11.99;54.87
12759;BME280;20944;47.048;15.390;2024-03-25T09:38:04;96737.34;;;12.19;55.49
12759;BME280;20944;47.048;15.390;2024-03-25T09:40:30;96747.59;;;12.42;54.05
12759;BME280;20944;47.048;15.390;2024-03-25T09:42:57;96726.19;;;12.50;49.84
12759;BME280;20944;47.048;15.390;2024-03-25T09:45:24;96742.19;;;12.63;51.72
12759;BME280;20944;47.048;15.390;2024-03-25T09:47:51;96704.94;;;12.55;51.16
12759;BME280;20944;47.048;15.390;2024-03-25T09:50:18;96732.16;;;12.71;49.79
12759;BME280;20944;47.048;15.390;2024-03-25T09:52:47;96731.63;;;12.64;47.46
12759;BME280;20944;47.048;15.390;2024-03-25T09:55:13;96737.47;;;12.35;47.88
12759;BME280;20944;47.048;15.390;2024-03-25T09:57:40;96736.69;;;12.33;51.10
12759;BME280;20944;47.048;15.390;2024-03-25T10:00:08;96741.06;;;12.15;49.17
12759;BME280;20944;47.048;15.390;2024-03-25T10:02:36;96736.69;;;11.97;50.55
12759;BME280;20944;47.048;15.390;2024-03-25T10:05:03;96737.03;;;11.70;50.80
12759;BME280;20944;47.048;15.390;2024-03-25T10:07:30;96739.88;;;11.66;51.48
12759;BME280;20944;47.048;15.390;2024-03-25T10:09:58;96744.00;;;11.71;50.81
12759;BME280;20944;47.048;15.390;2024-03-25T10:12:24;96744.75;;;11.73;51.91
12759;BME280;20944;47.048;15.390;2024-03-25T10:14:50;96727.16;;;11.56;50.14
12759;BME280;20944;47.048;15.390;2024-03-25T10:17:17;96736.25;;;11.49;51.44
12759;BME280;20944;47.048;15.390;2024-03-25T10:19:43;96733.13;;;11.41;50.87
12759;BME280;20944;47.048;15.390;2024-03-25T10:22:09;96736.75;;;11.39;50.48
12759;BME280;20944;47.048;15.390;2024-03-25T10:24:39;96692.66;;;11.28;51.28
12759;BME280;20944;47.048;15.390;2024-03-25T10:27:10;96732.16;;;11.81;47.70
12759;BME280;20944;47.048;15.390;2024-03-25T10:29:37;96727.59;;;12.04;48.52
12759;BME280;20944;47.048;15.390;2024-03-25T10:32:04;96705.28;;;11.95;46.90
12759;BME280;20944;47.048;15.390;2024-03-25T10:34:30;96722.34;;;12.04;47.78
12759;BME280;20944;47.048;15.390;2024-03-25T10:36:57;96662.44;;;11.76;47.27
12759;BME280;20944;47.048;15.390;2024-03-25T10:39:27;96721.31;;;12.42;46.53
12759;BME280;20944;47.048;15.390;2024-03-25T10:41:57;96721.88;;;12.66;44.26
12759;BME280;20944;47.048;15.390;2024-03-25T10:44:26;96718.13;;;12.88;43.78
12759;BME280;20944;47.048;15.390;2024-03-25T10:46:56;96714.47;;;13.08;43.16
12759;BME280;20944;47.048;15.390;2024-03-25T10:49:31;96713.69;;;13.23;43.50
12759;BME280;20944;47.048;15.390;2024-03-25T10:52:00;96633.13;;;12.72;40.62
12759;BME280;20944;47.048;15.390;2024-03-25T10:54:29;96680.19;;;12.76;42.02
12759;BME280;20944;47.048;15.390;2024-03-25T10:56:58;96707.69;;;12.86;43.61
12759;BME280;20944;47.048;15.390;2024-03-25T10:59:26;96715.03;;;12.80;43.45
12759;BME280;20944;47.048;15.390;2024-03-25T11:01:53;96691.88;;;13.04;41.66
12759;BME280;20944;47.048;15.390;2024-03-25T11:04:20;96690.88;;;13.06;43.87
12759;BME280;20944;47.048;15.390;2024-03-25T11:06:47;96686.66;;;13.19;44.72
12759;BME280;20944;47.048;15.390;2024-03-25T11:09:22;96685.78;;;13.36;43.40
12759;BME280;20944;47.048;15.390;2024-03-25T11:11:50;96674.94;;;13.42;41.88
12759;BME280;20944;47.048;15.390;2024-03-25T11:14:16;96674.84;;;13.60;40.13
12759;BME280;20944;47.048;15.390;2024-03-25T11:16:51;96677.91;;;13.68;37.79
12759;BME280;20944;47.048;15.390;2024-03-25T11:19:18;96670.75;;;13.70;39.78
12759;BME280;20944;47.048;15.390;2024-03-25T11:21:44;96672.72;;;13.82;40.88
12759;BME280;20944;47.048;15.390;2024-03-25T11:24:11;96656.34;;;13.61;39.71
12759;BME280;20944;47.048;15.390;2024-03-25T11:26:41;96658.66;;;13.52;40.83
12759;BME280;20944;47.048;15.390;2024-03-25T11:29:07;96675.00;;;13.57;42.61
12759;BME280;20944;47.048;15.390;2024-03-25T11:31:34;96640.88;;;13.23;39.63
12759;BME280;20944;47.048;15.390;2024-03-25T11:34:05;96662.44;;;13.30;41.20
12759;BME280;20944;47.048;15.390;2024-03-25T11:36:32;96656.13;;;13.17;39.01
12759;BME280;20944;47.048;15.390;2024-03-25T11:38:59;96586.47;;;12.75;40.23
12759;BME280;20944;47.048;15.390;2024-03-25T11:41:26;96625.44;;;13.00;39.94
12759;BME280;20944;47.048;15.390;2024-03-25T11:43:52;96662.09;;;13.36;41.60
12759;BME280;20944;47.048;15.390;2024-03-25T11:46:19;96653.03;;;13.73;44.19
12759;BME280;20944;47.048;15.390;2024-03-25T11:48:45;96650.88;;;13.96;40.49
12759;BME280;20944;47.048;15.390;2024-03-25T11:51:16;96621.53;;;13.72;40.31
12759;BME280;20944;47.048;15.390;2024-03-25T11:53:43;96633.22;;;13.82;44.13
12759;BME280;20944;47.048;15.390;2024-03-25T11:56:11;96636.53;;;13.86;42.22
12759;BME280;20944;47.048;15.390;2024-03-25T11:58:37;96611.00;;;13.72;41.02
12759;BME280;20944;47.048;15.390;2024-03-25T12:01:04;96624.41;;;13.67;41.66
12759;BME280;20944;47.048;15.390;2024-03-25T12:03:30;96628.31;;;13.44;42.95
12759;BME280;20944;47.048;15.390;2024-03-25T12:05:57;96631.81;;;13.29;41.16
12759;BME280;20944;47.048;15.390;2024-03-25T12:08:24;96616.97;;;13.28;42.95
12759;BME280;20944;47.048;15.390;2024-03-25T12:10:51;96622.72;;;13.50;40.75
12759;BME280;20944;47.048;15.390;2024-03-25T12:13:38;96620.09;;;13.66;41.90
12759;BME280;20944;47.048;15.390;2024-03-25T12:16:05;96600.22;;;13.76;39.80
12759;BME280;20944;47.048;15.390;2024-03-25T12:18:31;96618.94;;;14.02;42.52
12759;BME280;20944;47.048;15.390;2024-03-25T12:20:58;96564.03;;;13.94;38.17
12759;BME280;20944;47.048;15.390;2024-03-25T12:23:29;96607.63;;;14.44;38.12
12759;BME280;20944;47.048;15.390;2024-03-25T12:25:59;96598.59;;;14.34;37.56
12759;BME280;20944;47.048;15.390;2024-03-25T12:28:25;96593.50;;;13.71;39.02
12759;BME280;20944;47.048;15.390;2024-03-25T12:30:52;96609.91;;;13.60;41.02
12759;BME280;20944;47.048;15.390;2024-03-25T12:33:19;96609.50;;;13.82;42.09
12759;BME280;20944;47.048;15.390;2024-03-25T12:35:46;96608.34;;;14.18;39.19
12759;BME280;20944;47.048;15.390;2024-03-25T12:38:23;96570.72;;;14.30;36.91
12759;BME280;20944;47.048;15.390;2024-03-25T12:40:51;96604.03;;;14.61;38.00
12759;BME280;20944;47.048;15.390;2024-03-25T12:43:17;96590.75;;;14.48;35.22
12759;BME280;20944;47.048;15.390;2024-03-25T12:45:43;96574.72;;;14.51;36.06
12759;BME280;20944;47.048;15.390;2024-03-25T12:48:10;96585.38;;;15.07;38.60
12759;BME280;20944;47.048;15.390;2024-03-25T12:50:37;96588.81;;;15.36;36.39